Aérodrome :
LOGIN :

S'inscrire | Disclaimer

   EN    FR    IT 

 










Légende :    VFR   VFR Marginal   IFR   IFR Intensif   IFR Très Intensif
Visi : 
Plafond : 
>= 8 km
>= 3000ft
5 à 8 km
1000 à 3000 ft
1500m à 5 km
500 à 1000 ft
800 à 1500m
200 à 500 ft
< 800m
< 200 ft
Symboles :   Orages  Brouillard  Fortes neiges  Fortes précipitations  Vent > 20 kt
SIGMETs :   Divers  Orages  Givrage  Turbulence  Onde Orograph.  Cendres Volcan.







- Altitude de l'aérodrome : 236 ft
- Code IATA : MMX


ESMS - Malmö Sturup

DERNIER METAR :
  • 270250Z 07007KT 9999 OVC005 15/14 Q1024

METARs EXPIRÉS :
  • 270220Z 06006KT 9999 OVC005 15/14 Q1024
  • 270150Z AUTO 06008KT 9999 OVC006/// 15/13 Q1025
  • 270120Z AUTO 06009KT 9999 OVC007/// 15/14 Q1025
  • 270050Z 07009KT 9999 BKN008 15/13 Q1025
  • 270020Z 06007KT CAVOK 14/13 Q1025

TAF TAF ESMS
Valide du 27 à 00h jusqu'au 28 à 00h UTC


262302Z 2700/2724 07008KT 9999 BKN006
TEMPO 2700/2706 4000 BR BKN020
BECMG 2706/2708 08015KT SCT030
TEMPO 2708/2710 BKN010
TEMPO 2710/2721 08018G30KT
Pas de NOTAMs connus pour ce terrain.



MET'MAP, la Météo Aéronautique d'un coup d'oeil ! - Copyright ORBIFLY Décembre 2007 - Disclaimer

ORBIFLY MET'MAP TEAM :

Programmation & Développement : Alexandra Zaïnal
Conception & Développement : Baudouin d'Aumeries
Co-Programmation & Développement : Marc-Olivier Méhu
Soutien technique & logistique : Manuel Goepfert

Contact : metmap@orbifly.com




SOURCES & CREDITS :

   NOAA